Time;durP1;ratioP1;P1;durP2;ratioP2;P2;SDS_P1;SDS_P2;PMS_P1;PMS_P2;Temp;Humidity;BMP_temperature;BMP_pressure;BME280_temperature;BME280_humidity;BME280_pressure;Samples;Min_cycle;Max_cycle;Signal;HPM_P1;HPM_P2
2023/10/30 00:02:21;;;;;;;;;;;;;;;21.96;53.94;101247.78;7397380;19;1807;-43
2023/10/30 00:04:50;;;;;;;;;;;;;;;21.96;53.81;101230.78;7398076;19;1761;-43
2023/10/30 00:07:25;;;;;;;;;;;;;;;21.94;53.86;101235.47;7397867;19;1703;-43
2023/10/30 00:09:53;;;;;;;;;;;;;;;21.96;53.57;101228.09;7396780;19;1713;-42
2023/10/30 00:12:21;;;;;;;;;;;;;;;21.92;53.79;101218.59;7398409;19;1832;-43
2023/10/30 00:14:50;;;;;;;;;;;;;;;21.95;53.75;101223.72;7398424;19;1917;-42
2023/10/30 00:17:19;;;;;;;;;;;;;;;21.93;53.72;101225.72;7394214;19;1867;-42
2023/10/30 00:19:47;;;;;;;;;;;;;;;21.95;53.63;101223.72;7394907;19;1459;-42
2023/10/30 00:22:15;;;;;;;;;;;;;;;21.96;53.75;101214.63;7396414;19;1544;-42
2023/10/30 00:24:46;;;;;;;;;;;;;;;21.95;53.71;101223.72;7397093;19;1745;-42
2023/10/30 00:27:16;;;;;;;;;;;;;;;21.95;53.74;101223.72;7396887;19;1477;-43
2023/10/30 00:29:44;;;;;;;;;;;;;;;21.93;53.64;101247.25;7396999;19;1724;-43
2023/10/30 00:32:13;;;;;;;;;;;;;;;21.92;53.73;101205.16;7397431;19;1632;-42
2023/10/30 00:34:41;;;;;;;;;;;;;;;21.93;53.86;101218.47;7398123;19;1800;-42
2023/10/30 00:37:11;;;;;;;;;;;;;;;21.92;53.74;101207.84;7396122;19;1830;-42
2023/10/30 00:39:40;;;;;;;;;;;;;;;21.93;53.76;101205.00;7395932;19;1511;-43
2023/10/30 00:42:11;;;;;;;;;;;;;;;21.93;53.72;101209.56;7395152;19;1642;-42
2023/10/30 00:44:40;;;;;;;;;;;;;;;21.94;53.48;101211.25;7395130;19;1605;-43
2023/10/30 00:47:08;;;;;;;;;;;;;;;21.94;53.45;101209.38;7398702;19;1031;-42
2023/10/30 00:49:36;;;;;;;;;;;;;;;21.87;53.75;101210.13;7397294;19;1875;-42
2023/10/30 00:52:05;;;;;;;;;;;;;;;21.93;53.55;101220.31;7396129;19;1959;-42
2023/10/30 00:54:33;;;;;;;;;;;;;;;21.95;53.46;101224.56;7396295;19;1738;-43
2023/10/30 00:57:01;;;;;;;;;;;;;;;21.90;53.52;101212.53;7397238;19;2082;-42
2023/10/30 00:59:32;;;;;;;;;;;;;;;21.97;53.63;101210.97;7396639;19;1819;-42
2023/10/30 01:02:01;;;;;;;;;;;;;;;21.93;53.53;101205.00;7396153;19;1955;-43
2023/10/30 01:04:29;;;;;;;;;;;;;;;21.91;53.50;101200.78;7396098;19;1895;-42
2023/10/30 01:06:58;;;;;;;;;;;;;;;21.88;53.58;101196.50;7396592;19;1684;-42
2023/10/30 01:09:26;;;;;;;;;;;;;;;21.93;53.66;101213.09;7396011;19;1745;-43
2023/10/30 01:11:54;;;;;;;;;;;;;;;21.92;53.56;101197.06;7395749;19;1821;-43
2023/10/30 01:14:22;;;;;;;;;;;;;;;21.96;53.56;101209.25;7395491;19;1765;-42
2023/10/30 01:16:51;;;;;;;;;;;;;;;21.89;53.49;101208.16;7396081;19;1820;-43
2023/10/30 01:19:19;;;;;;;;;;;;;;;21.86;53.54;101211.94;7395235;19;1915;-43
2023/10/30 01:21:48;;;;;;;;;;;;;;;21.88;53.66;101214.50;7395516;19;1630;-42
2023/10/30 01:24:16;;;;;;;;;;;;;;;21.89;53.54;101203.59;7395780;19;1700;-42
2023/10/30 01:26:44;;;;;;;;;;;;;;;21.89;53.38;101218.91;7396042;19;1516;-42
2023/10/30 01:29:12;;;;;;;;;;;;;;;21.89;53.52;101208.16;7397028;19;1038;-43
2023/10/30 01:31:41;;;;;;;;;;;;;;;21.82;53.50;101211.38;7395930;19;1921;-42
2023/10/30 01:34:12;;;;;;;;;;;;;;;21.84;53.65;101211.25;7396170;19;1701;-42
2023/10/30 01:36:40;;;;;;;;;;;;;;;21.81;53.44;101185.47;7395400;19;1796;-43
2023/10/30 01:39:08;;;;;;;;;;;;;;;21.87;53.51;101212.81;7393874;19;1851;-43
2023/10/30 01:41:37;;;;;;;;;;;;;;;21.86;53.53;101198.50;7392635;19;1766;-42
2023/10/30 01:44:06;;;;;;;;;;;;;;;21.87;53.51;101202.06;7396293;19;1670;-42
2023/10/30 01:46:34;;;;;;;;;;;;;;;21.84;53.59;101206.75;7394930;19;1802;-42
2023/10/30 01:49:02;;;;;;;;;;;;;;;21.78;53.40;101204.59;7395435;19;1753;-42
2023/10/30 01:51:33;;;;;;;;;;;;;;;21.84;53.50;101206.75;7396088;19;1293;-43
2023/10/30 01:54:02;;;;;;;;;;;;;;;21.85;53.33;101202.19;7393605;19;1806;-42
2023/10/30 01:56:30;;;;;;;;;;;;;;;21.84;53.57;101204.03;7394125;19;1686;-43
2023/10/30 01:58:59;;;;;;;;;;;;;;;21.87;53.48;101200.22;7392174;19;1841;-43
2023/10/30 02:01:28;;;;;;;;;;;;;;;21.91;53.04;101196.22;7394542;19;1492;-43
2023/10/30 02:03:57;;;;;;;;;;;;;;;21.92;53.11;101200.59;7395998;19;1741;-42
2023/10/30 02:06:25;;;;;;;;;;;;;;;21.85;53.37;101196.81;7394833;19;1714;-42
2023/10/30 02:08:57;;;;;;;;;;;;;;;21.80;53.31;101202.59;7393262;19;1797;-43
2023/10/30 02:11:25;;;;;;;;;;;;;;;21.85;53.51;101207.56;7395805;19;1734;-42
2023/10/30 02:13:57;;;;;;;;;;;;;;;21.87;53.39;101193.97;7394182;19;1912;-42
2023/10/30 02:16:25;;;;;;;;;;;;;;;21.86;53.42;101198.50;7393764;19;1760;-42
2023/10/30 02:18:51;;;;;;;;;;;;;;;21.84;53.11;101185.19;7392404;19;1879;-42
2023/10/30 02:21:20;;;;;;;;;;;;;;;21.89;53.34;101208.16;7393809;19;1438;-42
2023/10/30 02:23:49;;;;;;;;;;;;;;;21.82;53.22;101202.47;7393651;19;1910;-42
2023/10/30 02:26:20;;;;;;;;;;;;;;;21.86;53.24;101206.56;7400175;19;1754;-42
2023/10/30 02:28:48;;;;;;;;;;;;;;;21.85;53.14;101205.72;7400592;19;1706;-43
2023/10/30 02:31:17;;;;;;;;;;;;;;;21.85;53.44;101213.81;7401029;19;1833;-42
2023/10/30 02:33:45;;;;;;;;;;;;;;;21.84;53.37;101203.16;7399209;19;1722;-43
2023/10/30 02:36:13;;;;;;;;;;;;;;;21.83;53.45;101210.41;7400529;19;1444;-42
2023/10/30 02:38:41;;;;;;;;;;;;;;;21.83;53.30;101198.78;7398464;19;1859;-43
2023/10/30 02:41:10;;;;;;;;;;;;;;;21.82;53.23;101197.91;7400746;19;1031;-42
2023/10/30 02:43:41;;;;;;;;;;;;;;;21.82;53.19;101202.47;7400526;19;1963;-42
2023/10/30 02:46:09;;;;;;;;;;;;;;;21.84;53.27;101198.66;7399850;19;1812;-43
2023/10/30 02:48:37;;;;;;;;;;;;;;;21.83;53.22;101205.03;7400989;19;1658;-43
2023/10/30 02:51:06;;;;;;;;;;;;;;;21.80;53.16;101189.13;7400155;19;1927;-45
2023/10/30 02:53:34;;;;;;;;;;;;;;;21.82;53.26;101191.69;7396898;19;2495;-42
2023/10/30 02:56:02;;;;;;;;;;;;;;;21.81;53.10;101208.84;7399276;19;1861;-42
2023/10/30 02:58:31;;;;;;;;;;;;;;;21.81;53.40;101204.31;7397733;19;1871;-42
2023/10/30 03:01:02;;;;;;;;;;;;;;;21.82;53.22;101200.63;7399799;19;1640;-42
2023/10/30 03:03:30;;;;;;;;;;;;;;;21.78;53.10;101199.19;7399727;19;1456;-42
2023/10/30 03:05:58;;;;;;;;;;;;;;;21.86;53.00;101209.25;7399336;19;1507;-42
2023/10/30 03:08:27;;;;;;;;;;;;;;;21.82;53.04;101206.00;7399613;19;1524;-42
2023/10/30 03:10:55;;;;;;;;;;;;;;;21.80;53.32;101204.44;7400550;19;1146;-42
2023/10/30 03:13:24;;;;;;;;;;;;;;;21.74;53.30;101200.47;7398744;19;1865;-42
2023/10/30 03:15:52;;;;;;;;;;;;;;;21.78;53.42;101201.91;7400937;19;1340;-43
2023/10/30 03:18:23;;;;;;;;;;;;;;;21.79;53.21;101203.59;7399718;19;1839;-42
2023/10/30 03:20:51;;;;;;;;;;;;;;;21.82;53.15;101208.69;7399162;19;1828;-42
2023/10/30 03:23:20;;;;;;;;;;;;;;;21.81;53.19;101204.31;7399687;19;1778;-42
2023/10/30 03:25:49;;;;;;;;;;;;;;;21.83;53.24;101199.63;7399044;19;1776;-43
2023/10/30 03:28:17;;;;;;;;;;;;;;;21.78;53.28;101196.50;7399303;19;1474;-42
2023/10/30 03:30:45;;;;;;;;;;;;;;;21.77;53.06;101202.91;7399546;19;1737;-43
2023/10/30 03:33:14;;;;;;;;;;;;;;;21.83;52.95;101206.88;7399468;19;1384;-43
2023/10/30 03:35:45;;;;;;;;;;;;;;;21.78;53.04;101201.91;7396224;19;1387;-42
2023/10/30 03:38:15;;;;;;;;;;;;;;;21.71;53.24;101200.78;7398883;19;1861;-42
2023/10/30 03:40:44;;;;;;;;;;;;;;;21.73;53.49;101204.19;7399205;19;1155;-42
2023/10/30 03:43:13;;;;;;;;;;;;;;;21.77;53.28;101210.97;7398295;19;1774;-43
2023/10/30 03:45:43;;;;;;;;;;;;;;;21.37;53.22;101138.47;7397979;19;1773;-42
2023/10/30 03:48:12;;;;;;;;;;;;;;;21.75;53.08;101202.19;7397510;19;1443;-42
2023/10/30 03:50:40;;;;;;;;;;;;;;;21.73;53.32;101209.56;7396341;19;1602;-42
2023/10/30 03:53:11;;;;;;;;;;;;;;;21.71;53.34;101198.09;7397635;19;1566;-43
2023/10/30 03:55:39;;;;;;;;;;;;;;;21.74;53.21;101199.66;7398235;19;1570;-42
2023/10/30 03:58:07;;;;;;;;;;;;;;;21.73;53.26;101214.94;7396949;19;1844;-42
2023/10/30 04:00:36;;;;;;;;;;;;;;;21.71;53.24;101208.88;7397291;19;1626;-42
2023/10/30 04:03:04;;;;;;;;;;;;;;;21.73;53.38;101206.88;7397209;19;1524;-42
2023/10/30 04:05:32;;;;;;;;;;;;;;;21.74;53.30;101207.72;7396406;19;1544;-42
2023/10/30 04:08:00;;;;;;;;;;;;;;;21.78;53.19;101220.75;7396665;19;1472;-43
2023/10/30 04:10:31;;;;;;;;;;;;;;;21.77;53.17;101196.69;7399441;19;1241;-42
2023/10/30 04:13:00;;;;;;;;;;;;;;;21.71;53.13;101208.88;7396768;19;1627;-42
2023/10/30 04:15:28;;;;;;;;;;;;;;;21.75;53.13;101202.19;7398530;19;1609;-42
2023/10/30 04:17:57;;;;;;;;;;;;;;;21.74;53.09;101213.94;7397359;19;1874;-42
2023/10/30 04:20:26;;;;;;;;;;;;;;;21.72;53.18;101207.84;7397519;19;1486;-42
2023/10/30 04:22:54;;;;;;;;;;;;;;;21.73;53.33;101208.72;7397155;19;1460;-43
2023/10/30 04:25:23;;;;;;;;;;;;;;;21.67;53.46;101199.38;7396862;19;1480;-42
2023/10/30 04:27:54;;;;;;;;;;;;;;;21.66;53.46;101200.34;7397752;19;1557;-42
2023/10/30 04:30:22;;;;;;;;;;;;;;;21.66;53.31;101208.44;7396737;19;1683;-43
2023/10/30 04:32:50;;;;;;;;;;;;;;;21.68;53.35;101209.13;7396877;19;1832;-43
2023/10/30 04:35:19;;;;;;;;;;;;;;;21.75;53.14;101212.13;7396936;19;1413;-42
2023/10/30 04:37:47;;;;;;;;;;;;;;;21.64;53.03;101205.88;7395917;19;1388;-42
2023/10/30 04:40:16;;;;;;;;;;;;;;;21.67;53.32;101210.16;7395528;19;1845;-42
2023/10/30 04:42:45;;;;;;;;;;;;;;;21.72;53.12;101207.84;7395434;19;1414;-42
2023/10/30 04:45:15;;;;;;;;;;;;;;;21.66;53.31;101211.13;7396688;19;1725;-43
2023/10/30 04:47:45;;;;;;;;;;;;;;;21.68;53.42;101216.38;7394844;19;1447;-43
2023/10/30 04:50:13;;;;;;;;;;;;;;;21.67;53.06;101220.91;7397187;19;1785;-42
2023/10/30 04:52:41;;;;;;;;;;;;;;;21.65;53.35;101215.66;7396403;19;1753;-42
2023/10/30 04:55:10;;;;;;;;;;;;;;;21.63;53.21;101227.56;7397349;19;1550;-42
2023/10/30 04:57:39;;;;;;;;;;;;;;;21.70;53.24;101223.31;7397604;19;1571;-42
2023/10/30 05:00:08;;;;;;;;;;;;;;;21.71;53.19;101235.78;7395259;19;1841;-42
2023/10/30 05:02:39;;;;;;;;;;;;;;;21.69;53.15;101223.47;7396925;19;1501;-42
2023/10/30 05:05:08;;;;;;;;;;;;;;;21.66;53.08;101235.34;7396608;19;1666;-42
2023/10/30 05:07:37;;;;;;;;;;;;;;;21.70;53.17;101242.16;7396302;19;1401;-42
2023/10/30 05:10:06;;;;;;;;;;;;;;;21.71;53.18;101238.47;7395737;19;1460;-43
2023/10/30 05:12:34;;;;;;;;;;;;;;;21.78;53.03;101239.59;7396624;19;1546;-42
2023/10/30 05:15:02;;;;;;;;;;;;;;;21.86;52.69;101255.03;7395786;19;1662;-42
2023/10/30 05:17:31;;;;;;;;;;;;;;;21.82;52.88;101256.31;7396794;19;1491;-42
2023/10/30 05:20:02;;;;;;;;;;;;;;;21.90;52.71;101244.84;7393716;19;1860;-42
2023/10/30 05:22:32;;;;;;;;;;;;;;;21.97;52.54;101276.44;7395308;19;1543;-42
2023/10/30 05:25:01;;;;;;;;;;;;;;;21.95;52.58;101253.34;7396101;19;1673;-43
2023/10/30 05:27:29;;;;;;;;;;;;;;;21.97;52.31;101252.19;7396131;19;1432;-43
2023/10/30 05:29:58;;;;;;;;;;;;;;;22.01;52.22;101258.16;7395325;19;1629;-42
2023/10/30 05:32:26;;;;;;;;;;;;;;;22.10;52.14;101259.13;7394009;19;1775;-43
2023/10/30 05:34:55;;;;;;;;;;;;;;;22.14;52.04;101269.47;7395960;19;1586;-50
2023/10/30 05:37:26;;;;;;;;;;;;;;;22.12;52.41;101271.44;7395655;19;1271;-42
2023/10/30 05:39:54;;;;;;;;;;;;;;;22.17;52.03;101271.88;7394698;19;1849;-42
2023/10/30 05:42:23;;;;;;;;;;;;;;;22.18;52.25;101268.19;7394968;19;1551;-43
2023/10/30 05:44:51;;;;;;;;;;;;;;;22.23;52.07;101279.38;7394916;19;1565;-42
2023/10/30 05:47:19;;;;;;;;;;;;;;;22.28;52.04;101264.66;7395491;19;1401;-43
2023/10/30 05:49:48;;;;;;;;;;;;;;;22.28;52.10;101272.72;7395543;19;1848;-42
2023/10/30 05:52:16;;;;;;;;;;;;;;;22.26;52.04;101280.94;7396137;19;1761;-42
2023/10/30 05:54:47;;;;;;;;;;;;;;;22.32;51.97;101274.16;7394734;19;1440;-42
2023/10/30 05:57:15;;;;;;;;;;;;;;;22.31;51.74;101278.69;7394588;19;1828;-42
2023/10/30 05:59:43;;;;;;;;;;;;;;;22.37;51.65;101279.97;7392765;19;1842;-42
2023/10/30 06:02:14;;;;;;;;;;;;;;;22.40;51.56;101279.66;7394716;19;1488;-42
2023/10/30 06:04:42;;;;;;;;;;;;;;;22.41;51.43;101284.06;7395868;19;1772;-42
2023/10/30 06:07:10;;;;;;;;;;;;;;;22.51;51.34;101279.50;7395102;19;1857;-42
2023/10/30 06:09:39;;;;;;;;;;;;;;;22.55;51.41;101291.69;7394249;19;1824;-43
2023/10/30 06:12:10;;;;;;;;;;;;;;;22.34;52.05;101291.00;7393681;19;1777;-42
2023/10/30 06:14:38;;;;;;;;;;;;;;;22.29;52.05;101279.84;7396149;19;1014;-42
2023/10/30 06:17:07;;;;;;;;;;;;;;;22.22;52.28;101291.16;7393000;19;1782;-42
2023/10/30 06:19:35;;;;;;;;;;;;;;;22.16;52.30;101291.75;7392480;19;1882;-42
2023/10/30 06:22:03;;;;;;;;;;;;;;;22.23;52.33;101287.47;7392741;19;2933;-42
2023/10/30 06:24:32;;;;;;;;;;;;;;;22.18;52.26;101295.13;7395095;19;1486;-42
2023/10/30 06:27:01;;;;;;;;;;;;;;;22.14;52.60;101296.38;7394524;19;1748;-42
2023/10/30 06:29:32;;;;;;;;;;;;;;;22.10;52.63;101299.53;7393589;19;1916;-42
2023/10/30 06:32:00;;;;;;;;;;;;;;;22.09;52.58;101290.59;7394723;19;1753;-43
2023/10/30 06:34:28;;;;;;;;;;;;;;;22.10;52.84;101297.66;7395025;19;1726;-43
2023/10/30 06:36:57;;;;;;;;;;;;;;;22.08;52.54;101293.44;7394294;19;1783;-43
2023/10/30 06:39:25;;;;;;;;;;;;;;;22.03;52.82;101292.03;7392691;19;1865;-42
2023/10/30 06:41:55;;;;;;;;;;;;;;;22.03;52.97;101292.03;7391416;19;1817;-42
2023/10/30 06:44:23;;;;;;;;;;;;;;;21.98;52.85;101294.28;7395059;19;1742;-42
2023/10/30 06:46:56;;;;;;;;;;;;;;;21.98;52.90;101278.13;7394672;19;1678;-42
2023/10/30 06:49:24;;;;;;;;;;;;;;;21.97;52.95;101297.13;7393123;19;1865;-42
2023/10/30 06:51:52;;;;;;;;;;;;;;;21.94;53.32;101283.94;7393143;19;1773;-43
2023/10/30 06:54:21;;;;;;;;;;;;;;;21.92;53.18;101280.53;7392661;19;1698;-42
2023/10/30 06:56:49;;;;;;;;;;;;;;;21.91;53.17;101281.56;7394029;19;1492;-42
2023/10/30 06:59:17;;;;;;;;;;;;;;;21.95;53.16;101282.97;7395095;19;1851;-42
2023/10/30 07:01:47;;;;;;;;;;;;;;;21.92;53.23;101284.06;7392998;19;1460;-43
2023/10/30 07:04:18;;;;;;;;;;;;;;;21.93;53.38;101285.78;7392950;19;1457;-42
2023/10/30 07:06:46;;;;;;;;;;;;;;;21.93;53.24;101275.03;7392554;19;1771;-43
2023/10/30 07:09:15;;;;;;;;;;;;;;;21.91;53.43;101276.16;7393121;19;1389;-43
2023/10/30 07:11:43;;;;;;;;;;;;;;;21.93;53.19;101279.56;7399022;19;1790;-42
2023/10/30 07:14:12;;;;;;;;;;;;;;;21.94;53.41;101275.88;7401947;19;1297;-43
2023/10/30 07:16:40;;;;;;;;;;;;;;;21.93;53.18;101277.72;7400526;19;1880;-42
2023/10/30 07:19:09;;;;;;;;;;;;;;;21.92;53.43;101281.38;7398843;19;1846;-43
2023/10/30 07:21:39;;;;;;;;;;;;;;;21.98;53.15;101282.66;7397744;19;1671;-42
2023/10/30 07:24:08;;;;;;;;;;;;;;;21.99;53.12;101287.06;7400948;19;1418;-42
2023/10/30 07:26:36;;;;;;;;;;;;;;;22.00;53.06;101286.06;7401211;19;1729;-43
2023/10/30 07:29:05;;;;;;;;;;;;;;;22.06;52.86;101285.47;7401035;19;1709;-43
2023/10/30 07:31:33;;;;;;;;;;;;;;;22.08;53.18;101288.88;7399066;19;1861;-42
2023/10/30 07:34:01;;;;;;;;;;;;;;;22.07;52.83;101272.91;7399936;19;1816;-42
2023/10/30 07:36:29;;;;;;;;;;;;;;;22.09;52.99;101265.53;7399738;19;1780;-43
2023/10/30 07:39:00;;;;;;;;;;;;;;;22.07;53.09;101265.66;7399138;19;1797;-42
2023/10/30 07:41:29;;;;;;;;;;;;;;;22.09;53.24;101274.44;7397253;19;1123;-42
2023/10/30 07:43:57;;;;;;;;;;;;;;;22.10;52.91;101257.28;7399060;19;1837;-42
2023/10/30 07:46:25;;;;;;;;;;;;;;;22.14;53.25;101277.53;7397696;19;1996;-42
2023/10/30 07:48:53;;;;;;;;;;;;;;;22.16;53.27;101272.00;7397864;19;1538;-44
2023/10/30 07:51:22;;;;;;;;;;;;;;;22.16;53.08;101270.19;7399142;19;1495;-42
2023/10/30 07:53:50;;;;;;;;;;;;;;;22.16;53.01;101258.53;7397930;19;1818;-42
2023/10/30 07:56:21;;;;;;;;;;;;;;;22.20;53.08;101255.44;7396591;19;1943;-42
2023/10/30 07:58:50;;;;;;;;;;;;;;;22.20;53.09;101260.81;7398824;19;1697;-42
2023/10/30 08:01:20;;;;;;;;;;;;;;;22.21;52.84;101246.34;7394435;19;1900;-42
2023/10/30 08:03:48;;;;;;;;;;;;;;;22.23;52.76;101260.53;7398883;19;1610;-42
2023/10/30 08:06:17;;;;;;;;;;;;;;;22.31;52.93;101262.53;7398304;19;1893;-42
2023/10/30 08:08:45;;;;;;;;;;;;;;;22.28;52.68;101253.88;7398713;19;1777;-43
2023/10/30 08:11:13;;;;;;;;;;;;;;;22.30;52.58;101251.88;7399873;19;1020;-43
2023/10/30 08:13:44;;;;;;;;;;;;;;;22.33;52.73;101260.53;7397303;19;1909;-42
2023/10/30 08:16:13;;;;;;;;;;;;;;;22.36;52.73;101249.47;7398628;19;1836;-42
2023/10/30 08:18:41;;;;;;;;;;;;;;;22.32;52.83;101247.19;7397698;19;1511;-43
2023/10/30 08:21:09;;;;;;;;;;;;;;;22.34;52.75;101245.22;7395491;19;1845;-43
2023/10/30 08:23:38;;;;;;;;;;;;;;;22.40;52.76;101255.41;7397294;19;1501;-42
2023/10/30 08:26:07;;;;;;;;;;;;;;;22.41;52.54;101244.47;7398745;19;1764;-43
2023/10/30 08:28:36;;;;;;;;;;;;;;;22.47;52.54;101243.06;7398462;19;1919;-43
2023/10/30 08:31:07;;;;;;;;;;;;;;;22.50;52.45;101241.91;7398668;19;1767;-42
2023/10/30 08:33:36;;;;;;;;;;;;;;;22.51;52.25;101236.38;7398740;19;1733;-42
2023/10/30 08:36:04;;;;;;;;;;;;;;;22.53;52.40;101231.69;7397151;19;1413;-43
2023/10/30 08:38:32;;;;;;;;;;;;;;;22.63;52.02;101243.28;7396091;19;1429;-42
2023/10/30 08:41:00;;;;;;;;;;;;;;;22.67;52.12;101229.50;7394394;19;1953;-42
2023/10/30 08:43:29;;;;;;;;;;;;;;;22.70;52.15;101229.19;7396709;19;1727;-43
2023/10/30 08:45:57;;;;;;;;;;;;;;;22.70;51.99;101229.19;7396437;19;1590;-43
2023/10/30 08:48:28;;;;;;;;;;;;;;;22.73;52.15;101235.13;7398394;19;1461;-42
2023/10/30 08:50:56;;;;;;;;;;;;;;;22.74;52.05;101246.75;7396314;19;1803;-43
2023/10/30 08:53:25;;;;;;;;;;;;;;;22.72;52.09;101216.41;7396143;19;1619;-43
2023/10/30 08:55:53;;;;;;;;;;;;;;;22.78;52.11;101227.47;7396135;19;1758;-43
2023/10/30 08:58:22;;;;;;;;;;;;;;;22.81;51.65;101237.09;7396762;19;1651;-43
2023/10/30 09:00:51;;;;;;;;;;;;;;;22.83;51.88;101221.63;7394872;19;1852;-43
2023/10/30 09:03:19;;;;;;;;;;;;;;;22.86;51.86;101237.50;7397492;19;1710;-43
2023/10/30 09:05:50;;;;;;;;;;;;;;;22.84;51.69;101204.47;7395297;19;1717;-42
2023/10/30 09:08:18;;;;;;;;;;;;;;;22.85;51.99;101233.09;7396820;19;1741;-42
2023/10/30 09:10:46;;;;;;;;;;;;;;;22.82;51.88;101219.94;7394570;19;1741;-43
2023/10/30 09:13:15;;;;;;;;;;;;;;;22.62;52.04;101206.53;7395120;19;1556;-43
2023/10/30 09:15:43;;;;;;;;;;;;;;;22.70;52.15;101207.63;7397253;19;1276;-43
2023/10/30 09:18:11;;;;;;;;;;;;;;;22.84;51.86;101215.25;7392165;19;1536;-42
2023/10/30 09:20:40;;;;;;;;;;;;;;;22.91;51.63;101216.31;7390402;19;1851;-42
2023/10/30 09:23:11;;;;;;;;;;;;;;;22.93;51.59;101203.53;7391180;19;1726;-43
2023/10/30 09:25:40;;;;;;;;;;;;;;;22.93;51.65;101208.91;7391800;19;1785;-42
2023/10/30 09:28:08;;;;;;;;;;;;;;;22.96;51.45;101197.84;7394030;19;1699;-42
2023/10/30 09:30:36;;;;;;;;;;;;;;;23.02;51.53;101202.66;7394693;19;1650;-42
2023/10/30 09:33:07;;;;;;;;;;;;;;;22.98;51.53;101189.63;7392656;19;1797;-42
2023/10/30 09:35:37;;;;;;;;;;;;;;;22.99;51.66;101202.94;7396026;19;1827;-42
2023/10/30 09:38:05;;;;;;;;;;;;;;;22.98;51.38;101190.44;7395619;19;1919;-43
2023/10/30 09:40:36;;;;;;;;;;;;;;;22.99;51.57;101199.38;7396863;19;1845;-42
2023/10/30 09:43:09;;;;;;;;;;;;;;;22.98;51.58;101185.06;7394775;19;1935;-42
2023/10/30 09:45:38;;;;;;;;;;;;;;;22.91;51.54;101169.63;7395783;19;1337;-42
2023/10/30 09:48:07;;;;;;;;;;;;;;;22.95;51.74;101177.25;7396304;19;1902;-43
2023/10/30 09:50:36;;;;;;;;;;;;;;;22.97;51.65;101183.34;7397169;19;1674;-43
2023/10/30 09:53:05;;;;;;;;;;;;;;;22.97;51.51;101177.94;7395008;19;1856;-43
2023/10/30 09:55:34;;;;;;;;;;;;;;;22.99;51.62;101172.41;7395100;19;1600;-43
2023/10/30 09:58:05;;;;;;;;;;;;;;;23.05;51.65;101176.38;7395985;19;1441;-43
2023/10/30 10:00:33;;;;;;;;;;;;;;;23.00;51.69;101172.28;7395471;19;1851;-43
2023/10/30 10:03:04;;;;;;;;;;;;;;;23.05;51.42;101165.59;7395317;19;1506;-43
2023/10/30 10:05:32;;;;;;;;;;;;;;;23.02;51.68;101172.16;7395544;19;1851;-43
2023/10/30 10:08:01;;;;;;;;;;;;;;;23.00;51.62;101163.34;7391752;19;1840;-43
2023/10/30 10:10:29;;;;;;;;;;;;;;;23.02;51.63;101166.75;7395371;19;1734;-42
2023/10/30 10:12:59;;;;;;;;;;;;;;;22.94;51.58;101155.81;7393786;19;1734;-43
2023/10/30 10:15:32;;;;;;;;;;;;;;;22.95;51.73;101152.97;7394976;19;1690;-42
2023/10/30 10:18:00;;;;;;;;;;;;;;;22.97;51.68;101145.59;7394230;19;1471;-43
2023/10/30 10:20:30;;;;;;;;;;;;;;;22.98;51.52;101152.69;7392495;19;1855;-43
2023/10/30 10:22:58;;;;;;;;;;;;;;;23.03;51.57;101154.97;7394595;19;1563;-42
2023/10/30 10:25:27;;;;;;;;;;;;;;;23.05;51.75;101152.94;7394936;19;1543;-43
2023/10/30 10:27:55;;;;;;;;;;;;;;;23.05;51.73;101144.88;7393087;19;1457;-43
2023/10/30 10:30:25;;;;;;;;;;;;;;;23.00;51.63;101131.81;7393875;19;1808;-43
2023/10/30 10:32:55;;;;;;;;;;;;;;;22.99;51.84;101138.19;7393403;19;1439;-43
2023/10/30 10:35:24;;;;;;;;;;;;;;;23.01;51.65;101121.88;7394555;19;1421;-43
2023/10/30 10:38:08;;;;;;;;;;;;;;;23.06;51.64;101138.47;7394897;19;1627;-43
2023/10/30 10:40:37;;;;;;;;;;;;;;;23.03;51.85;101136.91;7395047;19;1852;-44
2023/10/30 10:43:06;;;;;;;;;;;;;;;23.04;51.66;101129.69;7391887;19;1955;-44
2023/10/30 10:45:34;;;;;;;;;;;;;;;23.00;51.65;101129.13;7395033;19;1543;-46
2023/10/30 10:48:05;;;;;;;;;;;;;;;23.00;51.92;101125.56;7400748;19;1746;-42
2023/10/30 10:50:35;;;;;;;;;;;;;;;22.99;51.80;101116.63;7401186;19;1721;-43
2023/10/30 10:53:06;;;;;;;;;;;;;;;22.97;51.85;101118.63;7399897;19;1781;-43
2023/10/30 10:55:37;;;;;;;;;;;;;;;22.97;52.06;101123.16;7400913;19;1741;-43
2023/10/30 10:58:08;;;;;;;;;;;;;;;23.01;51.73;101103.81;7400455;19;1691;-43
2023/10/30 11:00:39;;;;;;;;;;;;;;;22.96;52.14;101114.25;7399898;19;1845;-43
2023/10/30 11:03:10;;;;;;;;;;;;;;;22.91;52.04;101111.16;7400682;19;1778;-43
2023/10/30 11:05:39;;;;;;;;;;;;;;;22.87;52.37;101104.38;7401613;19;1734;-43
2023/10/30 11:08:14;;;;;;;;;;;;;;;22.81;52.35;101100.41;7400643;19;1508;-42
2023/10/30 11:10:44;;;;;;;;;;;;;;;22.81;52.46;101096.88;7401187;19;1836;-43
2023/10/30 11:13:18;;;;;;;;;;;;;;;22.80;52.39;101079.88;7398543;19;1742;-42
2023/10/30 11:15:51;;;;;;;;;;;;;;;22.76;52.40;101091.09;7399772;19;1828;-42
2023/10/30 11:18:24;;;;;;;;;;;;;;;22.80;52.63;101090.66;7399512;19;2052;-43
2023/10/30 11:20:56;;;;;;;;;;;;;;;22.74;52.57;101074.22;7398524;19;1858;-43
2023/10/30 11:23:39;;;;;;;;;;;;;;;22.75;52.54;101082.16;7400012;19;1403;-43
2023/10/30 11:26:08;;;;;;;;;;;;;;;22.73;52.86;101084.16;7397512;19;1755;-43
2023/10/30 11:28:36;;;;;;;;;;;;;;;22.74;52.76;101074.22;7399617;19;1228;-43
2023/10/30 11:31:09;;;;;;;;;;;;;;;22.72;52.75;101081.63;7400268;19;1588;-43
2023/10/30 11:33:40;;;;;;;;;;;;;;;22.68;52.85;101064.03;7398444;19;1860;-43
2023/10/30 11:36:23;;;;;;;;;;;;;;;22.72;52.89;101066.31;7399252;19;1873;-43
2023/10/30 11:39:09;;;;;;;;;;;;;;;22.67;52.91;101065.91;7399336;19;1917;-43
2023/10/30 11:41:36;;;;;;;;;;;;;;;22.71;52.73;101061.06;7397295;19;1838;-43
2023/10/30 11:44:09;;;;;;;;;;;;;;;22.73;52.66;101056.38;7398399;19;1494;-43
2023/10/30 11:46:41;;;;;;;;;;;;;;;22.72;53.00;101057.34;7398558;19;1401;-47
2023/10/30 11:49:14;;;;;;;;;;;;;;;22.74;52.89;101056.22;7399430;19;1811;-42
2023/10/30 11:51:43;;;;;;;;;;;;;;;22.75;52.66;101038.19;7399842;19;1440;-42
2023/10/30 11:54:12;;;;;;;;;;;;;;;22.74;52.82;101058.03;7397933;19;2056;-42
2023/10/30 11:56:40;;;;;;;;;;;;;;;22.74;52.64;101041.88;7396999;19;1397;-42
2023/10/30 11:59:11;;;;;;;;;;;;;;;22.70;52.92;101043.19;7398327;19;1376;-42
2023/10/30 12:01:40;;;;;;;;;;;;;;;22.69;52.98;101042.34;7396973;19;1842;-42
2023/10/30 12:04:08;;;;;;;;;;;;;;;22.66;52.94;101044.47;7397845;19;1485;-42
2023/10/30 12:06:40;;;;;;;;;;;;;;;22.63;53.02;101040.25;7398309;19;1766;-42
2023/10/30 12:09:08;;;;;;;;;;;;;;;22.60;53.06;101041.41;7397937;19;1482;-42
2023/10/30 12:11:37;;;;;;;;;;;;;;;22.56;53.33;101033.75;7399404;19;1804;-42
2023/10/30 12:14:05;;;;;;;;;;;;;;;22.51;53.38;101044.19;7399103;19;1675;-42
2023/10/30 12:16:36;;;;;;;;;;;;;;;22.49;53.28;101025.47;7394187;19;1832;-42
2023/10/30 12:19:05;;;;;;;;;;;;;;;22.50;53.44;101037.94;7397829;19;1440;-42
2023/10/30 12:21:33;;;;;;;;;;;;;;;22.49;53.55;101017.38;7395972;19;1848;-42
2023/10/30 12:24:04;;;;;;;;;;;;;;;22.50;53.42;101020.91;7398663;19;1466;-42
2023/10/30 12:26:34;;;;;;;;;;;;;;;22.51;53.37;101012.69;7399079;19;1556;-42
2023/10/30 12:29:02;;;;;;;;;;;;;;;22.53;53.40;101024.16;7398648;19;1804;-42
2023/10/30 12:31:31;;;;;;;;;;;;;;;22.45;53.44;101005.19;7397713;19;1770;-42
2023/10/30 12:34:08;;;;;;;;;;;;;;;22.44;53.72;100998.09;7397395;19;1746;-42
2023/10/30 12:36:37;;;;;;;;;;;;;;;22.42;53.73;101000.97;7397148;19;1786;-42
2023/10/30 12:39:18;;;;;;;;;;;;;;;22.44;53.78;101006.19;7397145;19;1874;-42
2023/10/30 12:41:47;;;;;;;;;;;;;;;22.42;53.87;101000.09;7396208;19;1869;-42
2023/10/30 12:44:17;;;;;;;;;;;;;;;22.39;53.84;100981.56;7396448;19;1451;-42
2023/10/30 12:46:46;;;;;;;;;;;;;;;22.37;53.95;100983.56;7398394;19;1705;-42
2023/10/30 12:49:14;;;;;;;;;;;;;;;21.93;53.77;100908.00;7396817;19;1440;-42
2023/10/30 12:51:43;;;;;;;;;;;;;;;22.39;53.95;100976.19;7397824;19;1762;-42
2023/10/30 12:54:11;;;;;;;;;;;;;;;22.39;53.93;100974.31;7397106;19;1419;-42
2023/10/30 12:56:42;;;;;;;;;;;;;;;22.39;53.67;100984.25;7397360;19;1400;-42
2023/10/30 12:59:10;;;;;;;;;;;;;;;22.40;53.83;100969.78;7397071;19;1757;-42